Time;durP1;ratioP1;P1;durP2;ratioP2;P2;SDS_P1;SDS_P2;PMS_P1;PMS_P2;Temp;Humidity;BMP_temperature;BMP_pressure;BME280_temperature;BME280_humidity;BME280_pressure;Samples;Min_cycle;Max_cycle;Signal;HPM_P1;HPM_P2
2023/06/13 00:02:23;;;;;;;;;;;;;;;;;;4961150;28;19929;-58
2023/06/13 00:04:55;;;;;;;;;;;;;;;;;;4973739;28;19918;-58
2023/06/13 00:07:20;;;;;;;;;;;;;;;;;;4960269;28;19918;-58
2023/06/13 00:09:48;;;;;;;;;;;;;;;;;;4960581;28;20318;-58
2023/06/13 00:12:13;;;;;;;;;;;;;;;;;;4952715;28;19922;-58
2023/06/13 00:14:38;;;;;;;;;;;;;;;;;;4958780;28;19929;-58
2023/06/13 00:17:04;;;;;;;;;;;;;;;;;;4963557;28;20009;-58
2023/06/13 00:19:29;;;;;;;;;;;;;;;;;;4945556;28;19976;-58
2023/06/13 00:21:58;;;;;;;;;;;;;;;;;;4961462;28;19964;-58
2023/06/13 00:24:23;;;;;;;;;;;;;;;;;;4948198;28;20040;-59
2023/06/13 00:26:48;;;;;;;;;;;;;;;;;;4962717;28;20402;-58
2023/06/13 00:29:13;;;;;;;;;;;;;;;;;;4962940;28;19976;-58
2023/06/13 00:31:43;;;;;;;;;;;;;;;;;;4951185;28;19914;-58
2023/06/13 00:34:08;;;;;;;;;;;;;;;;;;4976122;28;22019;-58
2023/06/13 00:36:37;;;;;;;;;;;;;;;;;;4960608;28;19973;-57
2023/06/13 00:39:02;;;;;;;;;;;;;;;;;;4945688;28;20329;-58
2023/06/13 00:41:27;;;;;;;;;;;;;;;;;;4962948;28;19918;-58
2023/06/13 00:43:53;;;;;;;;;;;;;;;;;;4960892;28;20052;-57
2023/06/13 00:46:21;;;;;;;;;;;;;;;;;;4960769;28;20044;-58
2023/06/13 00:48:49;;;;;;;;;;;;;;;;;;4961755;28;19926;-59
2023/06/13 00:51:20;;;;;;;;;;;;;;;;;;4960661;28;20043;-57
2023/06/13 00:53:48;;;;;;;;;;;;;;;;;;4957171;28;19929;-59
2023/06/13 00:56:13;;;;;;;;;;;;;;;;;;4946540;28;19941;-58
2023/06/13 00:58:41;;;;;;;;;;;;;;;;;;4960432;28;20477;-59
2023/06/13 01:01:10;;;;;;;;;;;;;;;;;;4961373;28;20654;-59
2023/06/13 01:03:36;;;;;;;;;;;;;;;;;;4944932;28;19918;-58
2023/06/13 01:06:04;;;;;;;;;;;;;;;;;;4976248;28;20493;-58
2023/06/13 01:08:35;;;;;;;;;;;;;;;;;;4961385;28;20371;-58
2023/06/13 01:11:03;;;;;;;;;;;;;;;;;;4975539;28;19928;-58
2023/06/13 01:13:29;;;;;;;;;;;;;;;;;;4963035;28;19933;-58
2023/06/13 01:15:55;;;;;;;;;;;;;;;;;;4958310;28;20228;-58
2023/06/13 01:18:22;;;;;;;;;;;;;;;;;;4962307;28;20432;-59
2023/06/13 01:20:51;;;;;;;;;;;;;;;;;;4949979;28;20452;-58
2023/06/13 01:23:16;;;;;;;;;;;;;;;;;;4960645;28;19922;-59
2023/06/13 01:25:44;;;;;;;;;;;;;;;;;;4959629;28;19922;-58
2023/06/13 01:28:13;;;;;;;;;;;;;;;;;;4960617;28;20016;-58
2023/06/13 01:30:43;;;;;;;;;;;;;;;;;;4974787;28;20640;-58
2023/06/13 01:33:09;;;;;;;;;;;;;;;;;;4961460;28;19922;-58
2023/06/13 01:35:34;;;;;;;;;;;;;;;;;;4959933;28;19929;-59
2023/06/13 01:37:59;;;;;;;;;;;;;;;;;;4961610;28;19961;-59
2023/06/13 01:40:29;;;;;;;;;;;;;;;;;;4959417;28;19922;-58
2023/06/13 01:42:55;;;;;;;;;;;;;;;;;;4974762;28;19921;-58
2023/06/13 01:45:20;;;;;;;;;;;;;;;;;;4943799;28;20404;-59
2023/06/13 01:47:47;;;;;;;;;;;;;;;;;;4960971;28;20013;-59
2023/06/13 01:50:16;;;;;;;;;;;;;;;;;;4959776;28;19928;-59
2023/06/13 01:52:41;;;;;;;;;;;;;;;;;;4975606;28;19921;-58
2023/06/13 01:55:09;;;;;;;;;;;;;;;;;;4961359;28;20278;-59
2023/06/13 01:57:36;;;;;;;;;;;;;;;;;;4974811;28;19922;-57
2023/06/13 02:00:01;;;;;;;;;;;;;;;;;;4960282;28;19929;-58
2023/06/13 02:02:26;;;;;;;;;;;;;;;;;;4975065;28;19965;-58
2023/06/13 02:04:51;;;;;;;;;;;;;;;;;;4958119;28;20259;-58
2023/06/13 02:07:19;;;;;;;;;;;;;;;;;;4975111;28;20023;-57
2023/06/13 02:09:47;;;;;;;;;;;;;;;;;;4959408;28;19937;-58
2023/06/13 02:12:12;;;;;;;;;;;;;;;;;;4961179;28;19969;-57
2023/06/13 02:14:38;;;;;;;;;;;;;;;;;;4945113;28;20135;-58
2023/06/13 02:17:03;;;;;;;;;;;;;;;;;;4941184;28;19926;-57
2023/06/13 02:19:34;;;;;;;;;;;;;;;;;;4958589;28;19957;-58
2023/06/13 02:22:00;;;;;;;;;;;;;;;;;;4967152;28;20600;-57
2023/06/13 02:24:25;;;;;;;;;;;;;;;;;;4957915;28;19918;-57
2023/06/13 02:26:53;;;;;;;;;;;;;;;;;;4957214;28;19917;-57
2023/06/13 02:29:18;;;;;;;;;;;;;;;;;;4947843;28;20138;-57
2023/06/13 02:31:44;;;;;;;;;;;;;;;;;;4941289;28;20404;-56
2023/06/13 02:34:10;;;;;;;;;;;;;;;;;;4975052;28;19976;-58
2023/06/13 02:36:37;;;;;;;;;;;;;;;;;;4958540;28;20014;-57
2023/06/13 02:39:07;;;;;;;;;;;;;;;;;;4959734;28;19978;-58
2023/06/13 02:41:35;;;;;;;;;;;;;;;;;;4959877;28;19925;-58
2023/06/13 02:44:00;;;;;;;;;;;;;;;;;;4958628;28;19917;-58
2023/06/13 02:46:25;;;;;;;;;;;;;;;;;;4944526;28;19929;-58
2023/06/13 02:48:51;;;;;;;;;;;;;;;;;;4941103;28;19922;-57
2023/06/13 02:51:18;;;;;;;;;;;;;;;;;;4938806;28;19929;-58
2023/06/13 02:53:44;;;;;;;;;;;;;;;;;;4948410;28;19921;-57
2023/06/13 02:56:12;;;;;;;;;;;;;;;;;;4954095;28;19929;-58
2023/06/13 02:58:37;;;;;;;;;;;;;;;;;;4944663;28;20360;-57
2023/06/13 03:01:05;;;;;;;;;;;;;;;;;;4943901;28;19918;-58
2023/06/13 03:03:34;;;;;;;;;;;;;;;;;;4962737;28;20118;-57
2023/06/13 03:06:01;;;;;;;;;;;;;;;;;;4960726;28;20098;-58
2023/06/13 03:08:26;;;;;;;;;;;;;;;;;;4957906;28;19922;-58
2023/06/13 03:10:52;;;;;;;;;;;;;;;;;;4957167;28;19961;-58
2023/06/13 03:13:18;;;;;;;;;;;;;;;;;;4940534;28;19922;-58
2023/06/13 03:15:45;;;;;;;;;;;;;;;;;;4958567;28;19918;-58
2023/06/13 03:18:10;;;;;;;;;;;;;;;;;;4961467;28;20036;-58
2023/06/13 03:20:38;;;;;;;;;;;;;;;;;;4958930;28;20382;-58
2023/06/13 03:23:03;;;;;;;;;;;;;;;;;;4946665;28;20957;-57
2023/06/13 03:25:29;;;;;;;;;;;;;;;;;;4940461;28;20004;-58
2023/06/13 03:27:57;;;;;;;;;;;;;;;;;;4956627;28;20378;-58
2023/06/13 03:30:25;;;;;;;;;;;;;;;;;;4973928;28;19932;-63
2023/06/13 03:32:54;;;;;;;;;;;;;;;;;;4955875;28;20014;-58
2023/06/13 03:41:54;;;;;;;;;;;;;;;;;;4950756;28;20281;-58
2023/06/13 03:44:26;;;;;;;;;;;;;;;;;;4952621;28;19918;-59
2023/06/13 03:46:52;;;;;;;;;;;;;;;;;;4976343;28;19932;-58
2023/06/13 03:49:22;;;;;;;;;;;;;;;;;;4962777;28;20028;-58
2023/06/13 03:55:07;;;;;;;;;;;;;;;;;;4961655;28;19932;-58
2023/06/13 03:57:34;;;;;;;;;;;;;;;;;;4962971;28;19922;-57
2023/06/13 04:00:00;;;;;;;;;;;;;;;;;;4972317;28;19931;-58
2023/06/13 04:02:27;;;;;;;;;;;;;;;;;;4947025;28;20523;-58
2023/06/13 04:04:56;;;;;;;;;;;;;;;;;;4953090;28;19921;-58
2023/06/13 04:07:21;;;;;;;;;;;;;;;;;;4977996;28;19980;-58
2023/06/13 04:09:46;;;;;;;;;;;;;;;;;;4947794;28;19930;-59
2023/06/13 04:12:14;;;;;;;;;;;;;;;;;;4961216;28;19922;-58
2023/06/13 04:14:43;;;;;;;;;;;;;;;;;;4977600;28;20803;-58
2023/06/13 04:17:10;;;;;;;;;;;;;;;;;;4946779;28;19922;-58
2023/06/13 04:19:39;;;;;;;;;;;;;;;;;;4977101;28;19929;-58
2023/06/13 04:22:07;;;;;;;;;;;;;;;;;;4976528;28;19964;-58
2023/06/13 04:24:32;;;;;;;;;;;;;;;;;;4963803;28;20016;-58
2023/06/13 04:26:58;;;;;;;;;;;;;;;;;;4961319;28;20463;-58
2023/06/13 04:29:28;;;;;;;;;;;;;;;;;;4958906;28;19932;-58
2023/06/13 04:31:56;;;;;;;;;;;;;;;;;;4945219;28;20012;-59
2023/06/13 04:34:23;;;;;;;;;;;;;;;;;;4960575;28;19918;-59
2023/06/13 04:36:48;;;;;;;;;;;;;;;;;;4976029;28;20366;-59
2023/06/13 04:39:14;;;;;;;;;;;;;;;;;;4959687;28;20021;-59
2023/06/13 04:41:43;;;;;;;;;;;;;;;;;;4962196;28;19980;-58
2023/06/13 04:44:13;;;;;;;;;;;;;;;;;;4943672;28;21759;-58
2023/06/13 04:46:43;;;;;;;;;;;;;;;;;;4946149;28;20409;-58
2023/06/13 04:49:09;;;;;;;;;;;;;;;;;;4961547;28;19926;-59
2023/06/13 04:51:34;;;;;;;;;;;;;;;;;;4943890;28;20453;-58
2023/06/13 04:54:02;;;;;;;;;;;;;;;;;;4973836;28;20679;-58
2023/06/13 04:56:31;;;;;;;;;;;;;;;;;;4976657;28;19922;-59
2023/06/13 04:59:00;;;;;;;;;;;;;;;;;;4961220;28;19933;-58
2023/06/13 05:01:28;;;;;;;;;;;;;;;;;;4958044;28;19926;-58
2023/06/13 05:03:57;;;;;;;;;;;;;;;;;;4961613;28;19921;-58
2023/06/13 05:06:22;;;;;;;;;;;;;;;;;;4944147;28;19929;-58
2023/06/13 05:08:52;;;;;;;;;;;;;;;;;;4976087;28;19933;-59
2023/06/13 05:11:20;;;;;;;;;;;;;;;;;;4975016;28;19929;-58
2023/06/13 05:13:48;;;;;;;;;;;;;;;;;;4944207;28;19930;-58
2023/06/13 05:16:17;;;;;;;;;;;;;;;;;;4946387;28;19933;-59
2023/06/13 05:18:46;;;;;;;;;;;;;;;;;;4975767;28;19918;-58
2023/06/13 05:21:16;;;;;;;;;;;;;;;;;;4962563;28;19928;-59
2023/06/13 05:23:43;;;;;;;;;;;;;;;;;;4975580;28;19997;-59
2023/06/13 05:26:09;;;;;;;;;;;;;;;;;;4961628;28;19926;-59
2023/06/13 05:28:34;;;;;;;;;;;;;;;;;;4944340;28;20490;-58
2023/06/13 05:31:02;;;;;;;;;;;;;;;;;;4959957;28;19918;-58
2023/06/13 05:33:33;;;;;;;;;;;;;;;;;;4960417;28;19940;-58
2023/06/13 05:35:58;;;;;;;;;;;;;;;;;;4961905;28;20045;-59
2023/06/13 05:38:26;;;;;;;;;;;;;;;;;;4960102;28;20309;-58
2023/06/13 05:40:54;;;;;;;;;;;;;;;;;;4952397;28;19937;-59
2023/06/13 05:43:20;;;;;;;;;;;;;;;;;;4975743;28;21519;-59
2023/06/13 05:45:48;;;;;;;;;;;;;;;;;;5188278;23;20020;-58
2023/06/13 05:48:18;;;;;;;;;;;;;;;;;;4922060;28;20546;-58
2023/06/13 05:50:43;;;;;;;;;;;;;;;;;;4937717;28;19997;-58
2023/06/13 05:53:14;;;;;;;;;;;;;;;;;;4938821;28;20740;-59
2023/06/13 05:55:42;;;;;;;;;;;;;;;;;;4939118;28;19968;-58
2023/06/13 05:58:07;;;;;;;;;;;;;;;;;;4936611;28;19928;-58
2023/06/13 06:00:40;;;;;;;;;;;;;;;;;;4920161;28;20020;-58
2023/06/13 06:03:05;;;;;;;;;;;;;;;;;;4923013;28;19984;-59
2023/06/13 06:05:33;;;;;;;;;;;;;;;;;;4935543;28;21142;-60
2023/06/13 06:07:58;;;;;;;;;;;;;;;;;;4930193;28;19926;-59
2023/06/13 06:10:26;;;;;;;;;;;;;;;;;;4913928;28;20013;-60
2023/06/13 06:12:57;;;;;;;;;;;;;;;;;;4929384;28;20216;-60
2023/06/13 06:15:24;;;;;;;;;;;;;;;;;;4930745;28;19926;-60
2023/06/13 06:17:57;;;;;;;;;;;;;;;;;;4946291;28;19919;-60
2023/06/13 06:20:25;;;;;;;;;;;;;;;;;;4930210;28;20009;-60
2023/06/13 06:22:50;;;;;;;;;;;;;;;;;;4932495;28;20344;-60
2023/06/13 06:25:23;;;;;;;;;;;;;;;;;;4946400;28;20509;-60
2023/06/13 06:27:49;;;;;;;;;;;;;;;;;;4930464;28;19932;-59
2023/06/13 06:30:17;;;;;;;;;;;;;;;;;;4912669;28;20081;-60
2023/06/13 06:32:42;;;;;;;;;;;;;;;;;;4946143;28;19930;-61
2023/06/13 06:35:07;;;;;;;;;;;;;;;;;;4915540;28;19960;-60
2023/06/13 06:37:33;;;;;;;;;;;;;;;;;;4928142;28;19988;-60
2023/06/13 06:39:58;;;;;;;;;;;;;;;;;;4913231;28;19962;-59
2023/06/13 06:42:25;;;;;;;;;;;;;;;;;;4946117;28;19954;-61
2023/06/13 06:44:53;;;;;;;;;;;;;;;;;;4946364;28;19954;-60
2023/06/13 06:47:18;;;;;;;;;;;;;;;;;;4940235;28;19927;-60
2023/06/13 06:49:43;;;;;;;;;;;;;;;;;;4924334;28;19926;-59
2023/06/13 06:52:08;;;;;;;;;;;;;;;;;;4925369;28;20024;-59
2023/06/13 06:54:36;;;;;;;;;;;;;;;;;;4924529;28;19929;-59
2023/06/13 06:57:02;;;;;;;;;;;;;;;;;;4926904;28;19923;-60
2023/06/13 06:59:27;;;;;;;;;;;;;;;;;;4923805;28;19941;-60
2023/06/13 07:01:52;;;;;;;;;;;;;;;;;;4940611;28;19958;-59
2023/06/13 07:04:20;;;;;;;;;;;;;;;;;;4926283;28;19922;-61
2023/06/13 07:06:45;;;;;;;;;;;;;;;;;;4927500;28;19919;-60
2023/06/13 07:09:11;;;;;;;;;;;;;;;;;;4924573;28;19927;-59
2023/06/13 07:11:36;;;;;;;;;;;;;;;;;;4909104;28;19923;-60
2023/06/13 07:14:01;;;;;;;;;;;;;;;;;;4926712;28;19923;-60
2023/06/13 07:16:26;;;;;;;;;;;;;;;;;;4926881;28;19934;-60
2023/06/13 07:18:57;;;;;;;;;;;;;;;;;;4924059;28;19931;-61
2023/06/13 07:21:22;;;;;;;;;;;;;;;;;;4926116;28;20049;-62
2023/06/13 07:23:47;;;;;;;;;;;;;;;;;;4924593;28;20628;-59
2023/06/13 07:26:15;;;;;;;;;;;;;;;;;;4926303;28;19966;-59
2023/06/13 07:28:43;;;;;;;;;;;;;;;;;;4924570;28;19926;-59
2023/06/13 07:31:09;;;;;;;;;;;;;;;;;;4940234;28;19977;-58
2023/06/13 07:33:34;;;;;;;;;;;;;;;;;;4925970;28;19923;-59
2023/06/13 07:36:00;;;;;;;;;;;;;;;;;;4924378;28;19926;-59
2023/06/13 07:38:25;;;;;;;;;;;;;;;;;;4925671;28;20352;-59
2023/06/13 07:40:51;;;;;;;;;;;;;;;;;;4924895;28;19942;-59
2023/06/13 07:43:19;;;;;;;;;;;;;;;;;;4924276;28;20377;-59
2023/06/13 07:45:46;;;;;;;;;;;;;;;;;;4910198;28;19918;-59
2023/06/13 07:48:11;;;;;;;;;;;;;;;;;;4929624;28;19926;-58
2023/06/13 07:50:36;;;;;;;;;;;;;;;;;;4930886;28;20001;-59
2023/06/13 07:53:02;;;;;;;;;;;;;;;;;;4942225;28;19922;-59
2023/06/13 07:55:30;;;;;;;;;;;;;;;;;;4944928;28;19922;-59
2023/06/13 07:57:55;;;;;;;;;;;;;;;;;;4929747;28;21496;-59
2023/06/13 08:00:20;;;;;;;;;;;;;;;;;;4945136;28;20329;-59
2023/06/13 08:02:46;;;;;;;;;;;;;;;;;;4945514;28;20420;-59
2023/06/13 08:05:13;;;;;;;;;;;;;;;;;;4944586;28;20299;-58
2023/06/13 08:07:41;;;;;;;;;;;;;;;;;;4928175;28;19922;-59
2023/06/13 08:10:06;;;;;;;;;;;;;;;;;;4929489;28;19926;-59
2023/06/13 08:12:32;;;;;;;;;;;;;;;;;;4945998;28;20347;-59
2023/06/13 08:15:00;;;;;;;;;;;;;;;;;;4928066;28;20365;-58
2023/06/13 08:17:25;;;;;;;;;;;;;;;;;;4944445;28;19973;-58
2023/06/13 08:19:51;;;;;;;;;;;;;;;;;;4927509;28;20389;-59
2023/06/13 08:22:18;;;;;;;;;;;;;;;;;;4943545;28;20365;-61
2023/06/13 08:24:48;;;;;;;;;;;;;;;;;;4927410;28;20366;-59
2023/06/13 08:27:17;;;;;;;;;;;;;;;;;;4925977;28;19933;-59
2023/06/13 08:29:42;;;;;;;;;;;;;;;;;;4931452;28;19926;-60
2023/06/13 08:32:07;;;;;;;;;;;;;;;;;;4947786;28;20642;-60
2023/06/13 08:34:35;;;;;;;;;;;;;;;;;;4948873;28;19922;-59
2023/06/13 08:37:00;;;;;;;;;;;;;;;;;;4948215;28;19958;-60
2023/06/13 08:39:26;;;;;;;;;;;;;;;;;;4946958;28;20629;-60
2023/06/13 08:41:51;;;;;;;;;;;;;;;;;;4930635;28;20453;-59
2023/06/13 08:44:16;;;;;;;;;;;;;;;;;;4929940;28;19922;-59
2023/06/13 08:46:44;;;;;;;;;;;;;;;;;;4948249;28;19941;-61
2023/06/13 08:49:09;;;;;;;;;;;;;;;;;;4930250;28;20185;-60
2023/06/13 08:51:35;;;;;;;;;;;;;;;;;;4933509;28;19981;-60
2023/06/13 08:54:00;;;;;;;;;;;;;;;;;;4916522;28;19929;-61
2023/06/13 08:56:28;;;;;;;;;;;;;;;;;;4931819;28;20250;-61
2023/06/13 08:58:54;;;;;;;;;;;;;;;;;;4934206;28;19921;-60
2023/06/13 09:01:19;;;;;;;;;;;;;;;;;;4930918;28;20095;-62
2023/06/13 09:03:47;;;;;;;;;;;;;;;;;;4946995;28;20231;-61
2023/06/13 09:06:13;;;;;;;;;;;;;;;;;;4931883;28;20397;-61
2023/06/13 09:08:38;;;;;;;;;;;;;;;;;;4927824;28;19918;-60
2023/06/13 09:11:06;;;;;;;;;;;;;;;;;;4930285;28;20407;-60
2023/06/13 09:13:34;;;;;;;;;;;;;;;;;;4929142;28;20116;-61
2023/06/13 09:16:00;;;;;;;;;;;;;;;;;;4946044;28;19918;-64
2023/06/13 09:18:27;;;;;;;;;;;;;;;;;;4931379;28;20008;-62
2023/06/13 09:20:53;;;;;;;;;;;;;;;;;;4928453;28;20806;-63
2023/06/13 09:23:18;;;;;;;;;;;;;;;;;;4945269;28;20074;-62
2023/06/13 09:25:43;;;;;;;;;;;;;;;;;;4934491;28;19952;-60
2023/06/13 09:28:11;;;;;;;;;;;;;;;;;;4929586;28;19929;-61
2023/06/13 09:30:39;;;;;;;;;;;;;;;;;;4914859;28;20289;-63
2023/06/13 09:33:10;;;;;;;;;;;;;;;;;;4945336;28;20251;-60
2023/06/13 09:35:35;;;;;;;;;;;;;;;;;;4912727;28;19930;-61
2023/06/13 09:38:00;;;;;;;;;;;;;;;;;;4945582;28;19921;-60
2023/06/13 09:40:25;;;;;;;;;;;;;;;;;;4946067;28;19921;-60
2023/06/13 09:42:51;;;;;;;;;;;;;;;;;;4947495;28;19922;-60
2023/06/13 09:45:16;;;;;;;;;;;;;;;;;;4916375;28;20381;-60
2023/06/13 09:47:44;;;;;;;;;;;;;;;;;;4947912;28;20300;-60
2023/06/13 09:50:12;;;;;;;;;;;;;;;;;;4929425;28;19930;-60
2023/06/13 09:52:40;;;;;;;;;;;;;;;;;;4944980;28;19918;-60
2023/06/13 09:55:06;;;;;;;;;;;;;;;;;;4945039;28;19918;-60
2023/06/13 09:57:32;;;;;;;;;;;;;;;;;;4930919;28;19961;-59
2023/06/13 10:00:00;;;;;;;;;;;;;;;;;;4912417;28;19932;-60
2023/06/13 10:02:28;;;;;;;;;;;;;;;;;;4928497;28;19976;-60
2023/06/13 10:04:55;;;;;;;;;;;;;;;;;;4946795;28;19922;-60
2023/06/13 10:07:20;;;;;;;;;;;;;;;;;;4928740;28;20014;-61
2023/06/13 10:09:48;;;;;;;;;;;;;;;;;;4910878;28;21961;-61
2023/06/13 10:12:16;;;;;;;;;;;;;;;;;;4912607;28;20014;-61
2023/06/13 10:14:41;;;;;;;;;;;;;;;;;;4945592;28;20319;-61
2023/06/13 10:17:11;;;;;;;;;;;;;;;;;;4912837;28;20389;-61
2023/06/13 10:19:39;;;;;;;;;;;;;;;;;;4944657;28;19964;-62
2023/06/13 10:22:04;;;;;;;;;;;;;;;;;;4926549;28;19922;-61
2023/06/13 10:24:29;;;;;;;;;;;;;;;;;;4928180;28;20044;-63
2023/06/13 10:26:59;;;;;;;;;;;;;;;;;;4928650;28;19918;-61
2023/06/13 10:29:25;;;;;;;;;;;;;;;;;;4914401;28;19926;-61
2023/06/13 10:31:50;;;;;;;;;;;;;;;;;;4927482;28;19941;-61
2023/06/13 10:34:16;;;;;;;;;;;;;;;;;;4945411;28;20117;-61
2023/06/13 10:36:44;;;;;;;;;;;;;;;;;;4944773;28;19949;-61
2023/06/13 10:39:09;;;;;;;;;;;;;;;;;;4945944;28;19918;-59
2023/06/13 10:41:35;;;;;;;;;;;;;;;;;;4945149;28;20041;-59
2023/06/13 10:44:00;;;;;;;;;;;;;;;;;;4931025;28;19961;-59
2023/06/13 10:46:28;;;;;;;;;;;;;;;;;;4929018;28;19926;-58
2023/06/13 10:48:54;;;;;;;;;;;;;;;;;;4911028;28;20270;-60
2023/06/13 10:51:20;;;;;;;;;;;;;;;;;;4935377;28;20388;-60
2023/06/13 10:53:45;;;;;;;;;;;;;;;;;;4925737;28;20831;-61
2023/06/13 10:56:16;;;;;;;;;;;;;;;;;;4943744;28;19928;-60
2023/06/13 10:58:45;;;;;;;;;;;;;;;;;;4912379;28;19922;-61
2023/06/13 11:01:12;;;;;;;;;;;;;;;;;;4913194;28;19972;-61
2023/06/13 11:03:38;;;;;;;;;;;;;;;;;;4944871;28;20393;-61
2023/06/13 11:06:06;;;;;;;;;;;;;;;;;;4927477;28;19918;-61
2023/06/13 11:08:35;;;;;;;;;;;;;;;;;;4928295;28;20278;-61
2023/06/13 11:11:00;;;;;;;;;;;;;;;;;;4912432;28;19926;-60
2023/06/13 11:13:28;;;;;;;;;;;;;;;;;;4945035;28;20192;-60
2023/06/13 11:15:56;;;;;;;;;;;;;;;;;;4929004;28;19984;-61
2023/06/13 11:18:22;;;;;;;;;;;;;;;;;;4944973;28;19918;-61
2023/06/13 11:20:52;;;;;;;;;;;;;;;;;;4944153;28;20380;-61
2023/06/13 11:23:20;;;;;;;;;;;;;;;;;;4942488;28;20270;-60
2023/06/13 11:25:50;;;;;;;;;;;;;;;;;;4928583;28;19942;-61
2023/06/13 11:28:17;;;;;;;;;;;;;;;;;;4927499;28;19930;-61
2023/06/13 11:30:44;;;;;;;;;;;;;;;;;;4912409;28;19926;-60
2023/06/13 11:33:11;;;;;;;;;;;;;;;;;;4929135;28;19929;-61
2023/06/13 11:35:39;;;;;;;;;;;;;;;;;;4945590;28;19925;-61
2023/06/13 11:38:07;;;;;;;;;;;;;;;;;;4927606;28;19922;-60
2023/06/13 11:40:32;;;;;;;;;;;;;;;;;;4945326;28;20471;-60
2023/06/13 11:43:00;;;;;;;;;;;;;;;;;;4944495;28;19929;-60
2023/06/13 11:45:26;;;;;;;;;;;;;;;;;;4944295;28;19933;-62
2023/06/13 11:47:55;;;;;;;;;;;;;;;;;;4939399;28;20473;-59
2023/06/13 11:50:24;;;;;;;;;;;;;;;;;;4922854;28;20455;-61
2023/06/13 11:52:49;;;;;;;;;;;;;;;;;;4923503;28;19923;-59
2023/06/13 11:55:15;;;;;;;;;;;;;;;;;;4925373;28;19926;-61
2023/06/13 11:57:40;;;;;;;;;;;;;;;;;;4926678;28;19980;-60
2023/06/13 12:00:09;;;;;;;;;;;;;;;;;;4911055;29;19963;-59
2023/06/13 12:02:34;;;;;;;;;;;;;;;;;;4924735;28;20333;-59
2023/06/13 12:05:02;;;;;;;;;;;;;;;;;;4926976;28;19919;-59
2023/06/13 12:07:31;;;;;;;;;;;;;;;;;;4928604;28;19918;-59
2023/06/13 12:09:56;;;;;;;;;;;;;;;;;;4928608;28;20033;-61
2023/06/13 12:12:24;;;;;;;;;;;;;;;;;;4911336;29;19925;-61
2023/06/13 12:14:52;;;;;;;;;;;;;;;;;;4913791;28;19924;-58
2023/06/13 12:17:21;;;;;;;;;;;;;;;;;;4911271;28;19922;-61
2023/06/13 12:19:50;;;;;;;;;;;;;;;;;;4915418;29;19997;-60
2023/06/13 12:22:16;;;;;;;;;;;;;;;;;;4927110;28;19926;-60
2023/06/13 12:24:41;;;;;;;;;;;;;;;;;;4930261;28;20200;-60
2023/06/13 12:27:11;;;;;;;;;;;;;;;;;;4927663;28;19933;-62
2023/06/13 12:29:39;;;;;;;;;;;;;;;;;;4928102;28;21778;-60
2023/06/13 12:32:08;;;;;;;;;;;;;;;;;;4928351;28;20013;-60
2023/06/13 12:34:34;;;;;;;;;;;;;;;;;;4930759;28;19923;-60
2023/06/13 12:37:03;;;;;;;;;;;;;;;;;;4927498;28;20057;-60
2023/06/13 12:39:32;;;;;;;;;;;;;;;;;;4914605;28;19926;-60
2023/06/13 12:41:57;;;;;;;;;;;;;;;;;;4929530;28;19922;-60
2023/06/13 12:44:25;;;;;;;;;;;;;;;;;;4913118;28;19961;-59
2023/06/13 12:46:50;;;;;;;;;;;;;;;;;;4934906;28;19996;-60
2023/06/13 12:49:18;;;;;;;;;;;;;;;;;;4948442;28;19930;-61
2023/06/13 12:51:44;;;;;;;;;;;;;;;;;;4914593;28;19968;-60
2023/06/13 12:54:09;;;;;;;;;;;;;;;;;;4947799;28;19922;-61
2023/06/13 12:56:34;;;;;;;;;;;;;;;;;;4948453;28;19918;-60
2023/06/13 12:59:01;;;;;;;;;;;;;;;;;;4947885;28;19922;-60
2023/06/13 13:01:26;;;;;;;;;;;;;;;;;;4914755;28;19976;-60
2023/06/13 13:03:51;;;;;;;;;;;;;;;;;;4948046;28;19926;-60
2023/06/13 13:06:24;;;;;;;;;;;;;;;;;;4929003;28;20015;-60
2023/06/13 13:08:49;;;;;;;;;;;;;;;;;;4931708;28;19984;-61
2023/06/13 13:11:14;;;;;;;;;;;;;;;;;;4949819;28;19918;-60
2023/06/13 13:13:40;;;;;;;;;;;;;;;;;;4931937;28;19937;-60
2023/06/13 13:16:08;;;;;;;;;;;;;;;;;;4930243;28;19922;-61
2023/06/13 13:18:33;;;;;;;;;;;;;;;;;;4930187;28;19923;-61
2023/06/13 13:20:58;;;;;;;;;;;;;;;;;;4947033;28;19926;-59
2023/06/13 13:23:23;;;;;;;;;;;;;;;;;;4947696;28;20439;-60
2023/06/13 13:25:49;;;;;;;;;;;;;;;;;;4929087;28;19925;-60
2023/06/13 13:28:14;;;;;;;;;;;;;;;;;;4947841;28;19922;-60
2023/06/13 13:30:40;;;;;;;;;;;;;;;;;;4945915;28;20278;-60
2023/06/13 13:33:08;;;;;;;;;;;;;;;;;;4934139;28;19977;-60
2023/06/13 13:35:36;;;;;;;;;;;;;;;;;;4929653;28;19933;-60
2023/06/13 13:38:04;;;;;;;;;;;;;;;;;;4947632;28;19929;-60
2023/06/13 13:40:32;;;;;;;;;;;;;;;;;;4916624;28;19961;-60
2023/06/13 13:43:00;;;;;;;;;;;;;;;;;;4916824;28;20013;-60
2023/06/13 13:45:25;;;;;;;;;;;;;;;;;;4931749;28;19918;-60
2023/06/13 13:47:53;;;;;;;;;;;;;;;;;;4946744;28;19930;-58
2023/06/13 13:50:21;;;;;;;;;;;;;;;;;;4929372;28;19962;-60
2023/06/13 13:52:49;;;;;;;;;;;;;;;;;;4913661;28;19922;-61
2023/06/13 13:55:17;;;;;;;;;;;;;;;;;;4932536;28;20038;-60
2023/06/13 13:57:45;;;;;;;;;;;;;;;;;;4916445;28;20073;-60
2023/06/13 14:00:10;;;;;;;;;;;;;;;;;;4930197;28;19984;-61
2023/06/13 14:02:40;;;;;;;;;;;;;;;;;;4934167;28;20016;-61
2023/06/13 14:05:06;;;;;;;;;;;;;;;;;;4947419;28;20160;-61
2023/06/13 14:07:31;;;;;;;;;;;;;;;;;;4915507;28;20873;-62
2023/06/13 14:09:56;;;;;;;;;;;;;;;;;;4930498;28;19918;-61
2023/06/13 14:12:21;;;;;;;;;;;;;;;;;;4945504;28;20030;-60
2023/06/13 14:14:49;;;;;;;;;;;;;;;;;;4913315;28;21535;-61
2023/06/13 14:17:14;;;;;;;;;;;;;;;;;;4929428;28;20016;-61
2023/06/13 14:19:43;;;;;;;;;;;;;;;;;;4929058;28;20650;-60
2023/06/13 14:22:11;;;;;;;;;;;;;;;;;;4945106;28;19934;-61
2023/06/13 14:24:39;;;;;;;;;;;;;;;;;;4926206;28;19918;-61
2023/06/13 14:27:04;;;;;;;;;;;;;;;;;;4931012;28;19944;-62
2023/06/13 14:29:29;;;;;;;;;;;;;;;;;;4926952;28;19945;-61
2023/06/13 14:31:55;;;;;;;;;;;;;;;;;;4930644;28;19918;-62
2023/06/13 14:34:20;;;;;;;;;;;;;;;;;;4928440;28;19930;-61
2023/06/13 14:36:53;;;;;;;;;;;;;;;;;;4926794;28;19922;-61
2023/06/13 14:39:21;;;;;;;;;;;;;;;;;;4916560;28;19972;-61
2023/06/13 14:41:51;;;;;;;;;;;;;;;;;;4927362;28;19922;-60
2023/06/13 14:44:19;;;;;;;;;;;;;;;;;;4928907;28;19981;-62
2023/06/13 14:46:47;;;;;;;;;;;;;;;;;;4910439;28;19930;-61
2023/06/13 14:49:12;;;;;;;;;;;;;;;;;;4946009;28;19922;-61
2023/06/13 14:51:37;;;;;;;;;;;;;;;;;;4945473;28;19957;-60
2023/06/13 14:54:05;;;;;;;;;;;;;;;;;;4929045;28;20378;-60
2023/06/13 14:56:33;;;;;;;;;;;;;;;;;;4928054;28;19922;-59
2023/06/13 14:58:58;;;;;;;;;;;;;;;;;;4946742;28;19949;-59
2023/06/13 15:01:23;;;;;;;;;;;;;;;;;;4929191;28;20374;-60
2023/06/13 15:03:50;;;;;;;;;;;;;;;;;;4945273;28;19918;-60
2023/06/13 15:06:16;;;;;;;;;;;;;;;;;;4928243;28;19922;-61
2023/06/13 15:08:42;;;;;;;;;;;;;;;;;;4928320;28;19927;-61
2023/06/13 15:11:07;;;;;;;;;;;;;;;;;;4928619;28;19976;-61
2023/06/13 15:13:32;;;;;;;;;;;;;;;;;;4937363;28;20585;-60
2023/06/13 15:16:00;;;;;;;;;;;;;;;;;;4912523;28;19922;-61
2023/06/13 15:18:32;;;;;;;;;;;;;;;;;;4944877;28;19969;-62
2023/06/13 15:20:57;;;;;;;;;;;;;;;;;;4904461;28;19933;-60
2023/06/13 15:23:22;;;;;;;;;;;;;;;;;;4910394;28;19922;-60
2023/06/13 15:25:48;;;;;;;;;;;;;;;;;;4943122;28;21475;-59
2023/06/13 15:28:13;;;;;;;;;;;;;;;;;;4926119;28;19965;-58
2023/06/13 15:30:44;;;;;;;;;;;;;;;;;;4939994;28;20369;-60
2023/06/13 15:33:12;;;;;;;;;;;;;;;;;;4927295;28;19930;-60
2023/06/13 15:35:37;;;;;;;;;;;;;;;;;;4908123;28;19926;-59
2023/06/13 15:38:02;;;;;;;;;;;;;;;;;;4944021;28;20565;-60
2023/06/13 15:40:31;;;;;;;;;;;;;;;;;;4942282;28;19950;-60
2023/06/13 15:42:56;;;;;;;;;;;;;;;;;;4944105;28;20472;-59
2023/06/13 15:45:22;;;;;;;;;;;;;;;;;;4943103;28;19918;-60
2023/06/13 15:47:51;;;;;;;;;;;;;;;;;;4908250;28;20021;-60
2023/06/13 15:50:16;;;;;;;;;;;;;;;;;;4941865;28;19924;-61
2023/06/13 15:52:44;;;;;;;;;;;;;;;;;;4943096;28;20016;-60
2023/06/13 15:55:09;;;;;;;;;;;;;;;;;;4943518;28;20446;-60
2023/06/13 15:57:34;;;;;;;;;;;;;;;;;;4943099;28;20048;-60
2023/06/13 16:00:00;;;;;;;;;;;;;;;;;;4944132;28;19989;-64
2023/06/13 16:02:25;;;;;;;;;;;;;;;;;;4930493;28;19922;-61
2023/06/13 16:04:54;;;;;;;;;;;;;;;;;;4927164;28;20020;-60
2023/06/13 16:07:21;;;;;;;;;;;;;;;;;;4931611;28;19921;-61
2023/06/13 16:09:47;;;;;;;;;;;;;;;;;;4926173;28;19918;-63
2023/06/13 16:12:15;;;;;;;;;;;;;;;;;;4910585;28;19930;-60
2023/06/13 16:14:43;;;;;;;;;;;;;;;;;;4943067;28;21485;-61
2023/06/13 16:17:11;;;;;;;;;;;;;;;;;;4942111;28;19929;-62
2023/06/13 16:19:38;;;;;;;;;;;;;;;;;;4924896;28;19926;-62
2023/06/13 16:22:09;;;;;;;;;;;;;;;;;;4919525;28;20346;-61
2023/06/13 16:24:36;;;;;;;;;;;;;;;;;;4941256;28;20025;-60
2023/06/13 16:27:01;;;;;;;;;;;;;;;;;;4942839;28;20463;-61
2023/06/13 16:29:26;;;;;;;;;;;;;;;;;;4921781;28;19922;-61
2023/06/13 16:31:54;;;;;;;;;;;;;;;;;;4922185;28;19973;-62
2023/06/13 16:34:25;;;;;;;;;;;;;;;;;;4926346;28;19961;-61
2023/06/13 16:36:51;;;;;;;;;;;;;;;;;;4908650;28;20541;-61
2023/06/13 16:39:17;;;;;;;;;;;;;;;;;;4922666;28;19965;-60
2023/06/13 16:41:42;;;;;;;;;;;;;;;;;;4922819;28;19922;-60
2023/06/13 16:44:07;;;;;;;;;;;;;;;;;;4924762;28;19922;-59
2023/06/13 16:46:33;;;;;;;;;;;;;;;;;;4943167;28;19931;-61
2023/06/13 16:48:58;;;;;;;;;;;;;;;;;;4925250;28;20361;-61
2023/06/13 16:51:26;;;;;;;;;;;;;;;;;;4927785;28;19926;-60
2023/06/13 16:53:51;;;;;;;;;;;;;;;;;;4943493;28;19922;-61